sensor_id;sensor_type;location;lat;lon;timestamp;P1;durP1;ratioP1;P2;durP2;ratioP2
18574;SDS011;9417;16.484;102.872;2023-05-16T00:01:28;47.80;;;35.65;;
18574;SDS011;9417;16.484;102.872;2023-05-16T00:03:36;45.88;;;33.17;;
18574;SDS011;9417;16.484;102.872;2023-05-16T00:05:43;43.17;;;32.80;;
18574;SDS011;9417;16.484;102.872;2023-05-16T00:07:52;38.70;;;29.95;;
18574;SDS011;9417;16.484;102.872;2023-05-16T00:09:59;39.65;;;31.20;;
18574;SDS011;9417;16.484;102.872;2023-05-16T00:12:06;41.53;;;30.55;;
18574;SDS011;9417;16.484;102.872;2023-05-16T00:14:14;37.33;;;27.90;;
18574;SDS011;9417;16.484;102.872;2023-05-16T00:16:21;45.47;;;40.65;;
18574;SDS011;9417;16.484;102.872;2023-05-16T00:18:28;48.40;;;39.70;;
18574;SDS011;9417;16.484;102.872;2023-05-16T00:20:35;39.30;;;29.30;;
18574;SDS011;9417;16.484;102.872;2023-05-16T00:22:42;36.65;;;28.90;;
18574;SDS011;9417;16.484;102.872;2023-05-16T00:24:51;34.58;;;26.15;;
18574;SDS011;9417;16.484;102.872;2023-05-16T00:26:58;36.63;;;29.02;;
18574;SDS011;9417;16.484;102.872;2023-05-16T00:29:06;31.92;;;26.70;;
18574;SDS011;9417;16.484;102.872;2023-05-16T00:31:13;31.90;;;25.25;;
18574;SDS011;9417;16.484;102.872;2023-05-16T00:33:20;36.80;;;27.50;;
18574;SDS011;9417;16.484;102.872;2023-05-16T00:35:27;32.15;;;25.00;;
18574;SDS011;9417;16.484;102.872;2023-05-16T00:37:34;41.28;;;33.97;;
18574;SDS011;9417;16.484;102.872;2023-05-16T00:39:42;38.33;;;32.13;;
18574;SDS011;9417;16.484;102.872;2023-05-16T00:41:50;38.05;;;32.35;;
18574;SDS011;9417;16.484;102.872;2023-05-16T00:43:58;36.28;;;32.47;;
18574;SDS011;9417;16.484;102.872;2023-05-16T00:46:04;32.85;;;24.77;;
18574;SDS011;9417;16.484;102.872;2023-05-16T00:48:12;31.55;;;24.63;;
18574;SDS011;9417;16.484;102.872;2023-05-16T00:50:20;33.22;;;25.73;;
18574;SDS011;9417;16.484;102.872;2023-05-16T00:52:27;30.98;;;24.38;;
18574;SDS011;9417;16.484;102.872;2023-05-16T00:54:37;34.65;;;25.13;;
18574;SDS011;9417;16.484;102.872;2023-05-16T00:56:44;30.83;;;23.90;;
18574;SDS011;9417;16.484;102.872;2023-05-16T00:58:53;29.08;;;22.42;;
18574;SDS011;9417;16.484;102.872;2023-05-16T01:01:00;27.75;;;22.52;;
18574;SDS011;9417;16.484;102.872;2023-05-16T01:03:07;30.45;;;23.17;;
18574;SDS011;9417;16.484;102.872;2023-05-16T01:05:15;31.85;;;23.02;;
18574;SDS011;9417;16.484;102.872;2023-05-16T01:07:22;24.52;;;20.70;;
18574;SDS011;9417;16.484;102.872;2023-05-16T01:09:29;29.50;;;22.02;;
18574;SDS011;9417;16.484;102.872;2023-05-16T01:11:40;24.95;;;21.50;;
18574;SDS011;9417;16.484;102.872;2023-05-16T01:13:58;32.20;;;22.73;;
18574;SDS011;9417;16.484;102.872;2023-05-16T01:16:15;28.58;;;20.88;;
18574;SDS011;9417;16.484;102.872;2023-05-16T01:18:28;27.95;;;20.23;;
18574;SDS011;9417;16.484;102.872;2023-05-16T01:20:42;28.70;;;21.35;;
18574;SDS011;9417;16.484;102.872;2023-05-16T01:23:02;28.42;;;21.13;;
18574;SDS011;9417;16.484;102.872;2023-05-16T01:25:20;26.02;;;19.88;;
18574;SDS011;9417;16.484;102.872;2023-05-16T01:27:37;28.70;;;20.45;;
18574;SDS011;9417;16.484;102.872;2023-05-16T01:29:45;25.67;;;20.33;;
18574;SDS011;9417;16.484;102.872;2023-05-16T01:31:52;25.42;;;19.73;;
18574;SDS011;9417;16.484;102.872;2023-05-16T01:34:00;23.15;;;19.08;;
18574;SDS011;9417;16.484;102.872;2023-05-16T01:36:09;25.85;;;18.73;;
18574;SDS011;9417;16.484;102.872;2023-05-16T01:38:22;23.92;;;18.70;;
18574;SDS011;9417;16.484;102.872;2023-05-16T01:40:35;28.08;;;19.13;;
18574;SDS011;9417;16.484;102.872;2023-05-16T01:42:51;23.98;;;19.88;;
18574;SDS011;9417;16.484;102.872;2023-05-16T01:45:02;25.60;;;19.65;;
18574;SDS011;9417;16.484;102.872;2023-05-16T01:47:18;28.02;;;19.30;;
18574;SDS011;9417;16.484;102.872;2023-05-16T01:49:30;22.90;;;17.75;;
18574;SDS011;9417;16.484;102.872;2023-05-16T01:51:44;25.27;;;17.73;;
18574;SDS011;9417;16.484;102.872;2023-05-16T01:53:57;24.08;;;17.83;;
18574;SDS011;9417;16.484;102.872;2023-05-16T01:56:12;20.88;;;17.23;;
18574;SDS011;9417;16.484;102.872;2023-05-16T01:58:25;25.10;;;17.92;;
18574;SDS011;9417;16.484;102.872;2023-05-16T02:00:35;25.80;;;23.02;;
18574;SDS011;9417;16.484;102.872;2023-05-16T02:02:42;30.67;;;25.92;;
18574;SDS011;9417;16.484;102.872;2023-05-16T02:04:51;24.52;;;16.83;;
18574;SDS011;9417;16.484;102.872;2023-05-16T02:06:58;22.30;;;16.35;;
18574;SDS011;9417;16.484;102.872;2023-05-16T02:09:09;20.45;;;15.60;;
18574;SDS011;9417;16.484;102.872;2023-05-16T02:11:16;21.73;;;16.25;;
18574;SDS011;9417;16.484;102.872;2023-05-16T02:13:27;21.38;;;16.02;;
18574;SDS011;9417;16.484;102.872;2023-05-16T02:15:37;22.90;;;16.73;;
18574;SDS011;9417;16.484;102.872;2023-05-16T02:17:44;21.05;;;15.02;;
18574;SDS011;9417;16.484;102.872;2023-05-16T02:19:51;19.15;;;15.52;;
18574;SDS011;9417;16.484;102.872;2023-05-16T02:21:58;18.83;;;15.30;;
18574;SDS011;9417;16.484;102.872;2023-05-16T02:24:07;27.80;;;24.80;;
18574;SDS011;9417;16.484;102.872;2023-05-16T02:26:14;20.45;;;16.42;;
18574;SDS011;9417;16.484;102.872;2023-05-16T02:28:21;22.27;;;18.80;;
18574;SDS011;9417;16.484;102.872;2023-05-16T02:30:30;25.92;;;15.48;;
18574;SDS011;9417;16.484;102.872;2023-05-16T02:32:37;18.42;;;14.32;;
18574;SDS011;9417;16.484;102.872;2023-05-16T02:34:47;18.15;;;14.63;;
18574;SDS011;9417;16.484;102.872;2023-05-16T02:36:54;18.23;;;13.82;;
18574;SDS011;9417;16.484;102.872;2023-05-16T02:39:01;18.75;;;14.30;;
18574;SDS011;9417;16.484;102.872;2023-05-16T02:41:08;19.85;;;15.40;;
18574;SDS011;9417;16.484;102.872;2023-05-16T02:43:16;21.08;;;14.77;;
18574;SDS011;9417;16.484;102.872;2023-05-16T02:45:24;20.85;;;14.40;;
18574;SDS011;9417;16.484;102.872;2023-05-16T02:47:33;17.20;;;15.07;;
18574;SDS011;9417;16.484;102.872;2023-05-16T02:49:40;18.70;;;14.23;;
18574;SDS011;9417;16.484;102.872;2023-05-16T02:51:46;18.77;;;14.48;;
18574;SDS011;9417;16.484;102.872;2023-05-16T02:53:54;19.08;;;14.52;;
18574;SDS011;9417;16.484;102.872;2023-05-16T02:56:02;23.13;;;17.55;;
18574;SDS011;9417;16.484;102.872;2023-05-16T02:58:09;17.92;;;15.90;;
18574;SDS011;9417;16.484;102.872;2023-05-16T03:00:16;20.27;;;16.48;;
18574;SDS011;9417;16.484;102.872;2023-05-16T03:02:24;19.13;;;16.05;;
18574;SDS011;9417;16.484;102.872;2023-05-16T03:04:33;17.02;;;15.30;;
18574;SDS011;9417;16.484;102.872;2023-05-16T03:06:39;20.45;;;16.30;;
18574;SDS011;9417;16.484;102.872;2023-05-16T03:08:46;20.35;;;15.38;;
18574;SDS011;9417;16.484;102.872;2023-05-16T03:10:54;21.40;;;15.30;;
18574;SDS011;9417;16.484;102.872;2023-05-16T03:13:01;22.35;;;15.70;;
18574;SDS011;9417;16.484;102.872;2023-05-16T03:15:09;19.15;;;16.83;;
18574;SDS011;9417;16.484;102.872;2023-05-16T03:17:15;21.48;;;15.85;;
18574;SDS011;9417;16.484;102.872;2023-05-16T03:19:23;19.83;;;16.55;;
18574;SDS011;9417;16.484;102.872;2023-05-16T03:21:31;20.05;;;17.65;;
18574;SDS011;9417;16.484;102.872;2023-05-16T03:23:40;21.08;;;17.13;;
18574;SDS011;9417;16.484;102.872;2023-05-16T03:25:48;18.20;;;15.82;;
18574;SDS011;9417;16.484;102.872;2023-05-16T03:27:55;18.73;;;16.60;;
18574;SDS011;9417;16.484;102.872;2023-05-16T03:30:02;24.92;;;17.25;;
18574;SDS011;9417;16.484;102.872;2023-05-16T03:32:10;25.95;;;17.88;;
18574;SDS011;9417;16.484;102.872;2023-05-16T03:34:17;19.55;;;15.65;;
18574;SDS011;9417;16.484;102.872;2023-05-16T03:36:24;25.70;;;16.15;;
18574;SDS011;9417;16.484;102.872;2023-05-16T03:38:33;18.27;;;16.33;;
18574;SDS011;9417;16.484;102.872;2023-05-16T03:40:41;21.20;;;16.10;;
18574;SDS011;9417;16.484;102.872;2023-05-16T03:42:48;23.77;;;17.35;;
18574;SDS011;9417;16.484;102.872;2023-05-16T03:44:55;21.20;;;17.70;;
18574;SDS011;9417;16.484;102.872;2023-05-16T03:47:02;21.38;;;17.55;;
18574;SDS011;9417;16.484;102.872;2023-05-16T03:49:09;17.40;;;15.57;;
18574;SDS011;9417;16.484;102.872;2023-05-16T03:51:16;17.70;;;15.80;;
18574;SDS011;9417;16.484;102.872;2023-05-16T03:53:23;19.42;;;16.35;;
18574;SDS011;9417;16.484;102.872;2023-05-16T03:55:32;21.67;;;16.80;;
18574;SDS011;9417;16.484;102.872;2023-05-16T03:57:39;22.77;;;16.65;;
18574;SDS011;9417;16.484;102.872;2023-05-16T03:59:47;18.67;;;16.17;;
18574;SDS011;9417;16.484;102.872;2023-05-16T04:01:54;18.38;;;16.15;;
18574;SDS011;9417;16.484;102.872;2023-05-16T04:04:01;21.92;;;17.90;;
18574;SDS011;9417;16.484;102.872;2023-05-16T04:06:08;22.63;;;16.42;;
18574;SDS011;9417;16.484;102.872;2023-05-16T04:08:15;20.70;;;16.88;;
18574;SDS011;9417;16.484;102.872;2023-05-16T04:10:22;19.10;;;16.30;;
18574;SDS011;9417;16.484;102.872;2023-05-16T04:12:32;19.08;;;16.25;;
18574;SDS011;9417;16.484;102.872;2023-05-16T04:14:39;19.58;;;17.58;;
18574;SDS011;9417;16.484;102.872;2023-05-16T04:16:46;22.52;;;17.08;;
18574;SDS011;9417;16.484;102.872;2023-05-16T04:18:54;22.27;;;16.80;;
18574;SDS011;9417;16.484;102.872;2023-05-16T04:21:02;18.60;;;16.67;;
18574;SDS011;9417;16.484;102.872;2023-05-16T04:23:10;18.65;;;16.73;;
18574;SDS011;9417;16.484;102.872;2023-05-16T04:25:17;19.63;;;17.52;;
18574;SDS011;9417;16.484;102.872;2023-05-16T04:27:24;21.00;;;17.65;;
18574;SDS011;9417;16.484;102.872;2023-05-16T04:29:33;21.77;;;17.08;;
18574;SDS011;9417;16.484;102.872;2023-05-16T04:31:40;25.95;;;17.90;;
18574;SDS011;9417;16.484;102.872;2023-05-16T04:33:47;19.70;;;15.65;;
18574;SDS011;9417;16.484;102.872;2023-05-16T04:35:54;21.38;;;16.40;;
18574;SDS011;9417;16.484;102.872;2023-05-16T04:38:02;19.58;;;15.38;;
18574;SDS011;9417;16.484;102.872;2023-05-16T04:40:10;17.33;;;15.25;;
18574;SDS011;9417;16.484;102.872;2023-05-16T04:42:17;24.20;;;16.30;;
18574;SDS011;9417;16.484;102.872;2023-05-16T04:44:24;23.70;;;17.05;;
18574;SDS011;9417;16.484;102.872;2023-05-16T04:46:33;18.05;;;16.23;;
18574;SDS011;9417;16.484;102.872;2023-05-16T04:48:40;18.42;;;14.48;;
18574;SDS011;9417;16.484;102.872;2023-05-16T04:50:47;17.10;;;13.77;;
18574;SDS011;9417;16.484;102.872;2023-05-16T04:52:55;21.90;;;14.75;;
18574;SDS011;9417;16.484;102.872;2023-05-16T04:55:02;20.15;;;14.52;;
18574;SDS011;9417;16.484;102.872;2023-05-16T04:57:09;16.92;;;13.90;;
18574;SDS011;9417;16.484;102.872;2023-05-16T04:59:16;16.67;;;13.48;;
18574;SDS011;9417;16.484;102.872;2023-05-16T05:01:23;18.17;;;13.30;;
18574;SDS011;9417;16.484;102.872;2023-05-16T05:03:32;18.75;;;13.32;;
18574;SDS011;9417;16.484;102.872;2023-05-16T05:05:39;19.48;;;15.23;;
18574;SDS011;9417;16.484;102.872;2023-05-16T05:07:46;20.83;;;15.43;;
18574;SDS011;9417;16.484;102.872;2023-05-16T05:09:53;18.27;;;16.27;;
18574;SDS011;9417;16.484;102.872;2023-05-16T05:12:00;19.63;;;14.00;;
18574;SDS011;9417;16.484;102.872;2023-05-16T05:14:08;20.25;;;14.60;;
18574;SDS011;9417;16.484;102.872;2023-05-16T05:16:14;16.48;;;13.73;;
18574;SDS011;9417;16.484;102.872;2023-05-16T05:18:22;16.23;;;13.35;;
18574;SDS011;9417;16.484;102.872;2023-05-16T05:20:30;18.13;;;14.15;;
18574;SDS011;9417;16.484;102.872;2023-05-16T05:22:37;17.30;;;13.80;;
18574;SDS011;9417;16.484;102.872;2023-05-16T05:24:45;22.02;;;14.85;;
18574;SDS011;9417;16.484;102.872;2023-05-16T05:26:52;20.95;;;14.57;;
18574;SDS011;9417;16.484;102.872;2023-05-16T05:28:58;20.05;;;18.13;;
18574;SDS011;9417;16.484;102.872;2023-05-16T05:31:07;18.90;;;17.00;;
18574;SDS011;9417;16.484;102.872;2023-05-16T05:33:15;19.60;;;16.08;;
18574;SDS011;9417;16.484;102.872;2023-05-16T05:35:23;19.52;;;17.48;;
18574;SDS011;9417;16.484;102.872;2023-05-16T05:37:32;22.52;;;18.05;;
18574;SDS011;9417;16.484;102.872;2023-05-16T05:39:39;21.73;;;19.30;;
18574;SDS011;9417;16.484;102.872;2023-05-16T05:41:46;19.83;;;17.92;;
18574;SDS011;9417;16.484;102.872;2023-05-16T05:43:53;21.20;;;18.85;;
18574;SDS011;9417;16.484;102.872;2023-05-16T05:46:00;21.08;;;18.45;;
18574;SDS011;9417;16.484;102.872;2023-05-16T05:48:08;21.20;;;18.98;;
18574;SDS011;9417;16.484;102.872;2023-05-16T05:50:15;19.63;;;17.30;;
18574;SDS011;9417;16.484;102.872;2023-05-16T05:52:22;23.98;;;18.55;;
18574;SDS011;9417;16.484;102.872;2023-05-16T05:54:32;21.17;;;17.77;;
18574;SDS011;9417;16.484;102.872;2023-05-16T05:56:39;20.02;;;18.02;;
18574;SDS011;9417;16.484;102.872;2023-05-16T05:58:46;19.92;;;17.92;;
18574;SDS011;9417;16.484;102.872;2023-05-16T06:00:53;18.90;;;16.92;;
18574;SDS011;9417;16.484;102.872;2023-05-16T06:03:00;20.52;;;16.70;;
18574;SDS011;9417;16.484;102.872;2023-05-16T06:05:07;19.35;;;17.35;;
18574;SDS011;9417;16.484;102.872;2023-05-16T06:07:14;19.30;;;17.30;;
18574;SDS011;9417;16.484;102.872;2023-05-16T06:09:22;19.20;;;15.07;;
18574;SDS011;9417;16.484;102.872;2023-05-16T06:11:30;18.70;;;16.48;;
18574;SDS011;9417;16.484;102.872;2023-05-16T06:13:37;20.25;;;16.08;;
18574;SDS011;9417;16.484;102.872;2023-05-16T06:15:48;18.88;;;16.90;;
18574;SDS011;9417;16.484;102.872;2023-05-16T06:17:55;20.98;;;17.98;;
18574;SDS011;9417;16.484;102.872;2023-05-16T06:20:03;22.88;;;17.33;;
18574;SDS011;9417;16.484;102.872;2023-05-16T06:22:10;19.38;;;17.48;;
18574;SDS011;9417;16.484;102.872;2023-05-16T06:24:17;19.70;;;16.83;;
18574;SDS011;9417;16.484;102.872;2023-05-16T06:26:24;19.60;;;17.30;;
18574;SDS011;9417;16.484;102.872;2023-05-16T06:28:33;20.10;;;16.48;;
18574;SDS011;9417;16.484;102.872;2023-05-16T06:30:40;21.50;;;17.10;;
18574;SDS011;9417;16.484;102.872;2023-05-16T06:32:47;18.25;;;16.48;;
18574;SDS011;9417;16.484;102.872;2023-05-16T06:34:54;18.67;;;16.48;;
18574;SDS011;9417;16.484;102.872;2023-05-16T06:37:01;18.80;;;16.70;;
18574;SDS011;9417;16.484;102.872;2023-05-16T06:39:08;18.58;;;16.70;;
18574;SDS011;9417;16.484;102.872;2023-05-16T06:41:15;21.50;;;18.25;;
18574;SDS011;9417;16.484;102.872;2023-05-16T06:43:22;20.40;;;18.23;;
18574;SDS011;9417;16.484;102.872;2023-05-16T06:45:31;20.17;;;18.15;;
18574;SDS011;9417;16.484;102.872;2023-05-16T06:47:38;19.75;;;17.65;;
18574;SDS011;9417;16.484;102.872;2023-05-16T06:49:45;19.70;;;17.83;;
18574;SDS011;9417;16.484;102.872;2023-05-16T06:51:52;25.42;;;18.52;;
18574;SDS011;9417;16.484;102.872;2023-05-16T06:53:59;21.98;;;18.90;;
18574;SDS011;9417;16.484;102.872;2023-05-16T06:56:06;20.30;;;18.15;;
18574;SDS011;9417;16.484;102.872;2023-05-16T06:58:13;19.80;;;17.88;;
18574;SDS011;9417;16.484;102.872;2023-05-16T07:00:20;20.60;;;17.45;;
18574;SDS011;9417;16.484;102.872;2023-05-16T07:02:29;20.13;;;17.92;;
18574;SDS011;9417;16.484;102.872;2023-05-16T07:04:36;19.35;;;17.38;;
18574;SDS011;9417;16.484;102.872;2023-05-16T07:06:43;21.10;;;18.60;;
18574;SDS011;9417;16.484;102.872;2023-05-16T07:08:50;21.77;;;17.58;;
18574;SDS011;9417;16.484;102.872;2023-05-16T07:10:58;20.85;;;18.70;;
18574;SDS011;9417;16.484;102.872;2023-05-16T07:13:05;19.98;;;17.98;;
18574;SDS011;9417;16.484;102.872;2023-05-16T07:15:12;21.30;;;19.20;;
18574;SDS011;9417;16.484;102.872;2023-05-16T07:17:19;22.63;;;17.63;;
18574;SDS011;9417;16.484;102.872;2023-05-16T07:19:28;19.52;;;17.42;;
18574;SDS011;9417;16.484;102.872;2023-05-16T07:21:35;20.08;;;17.92;;
18574;SDS011;9417;16.484;102.872;2023-05-16T07:23:42;19.98;;;17.98;;
18574;SDS011;9417;16.484;102.872;2023-05-16T07:25:49;19.25;;;15.48;;
18574;SDS011;9417;16.484;102.872;2023-05-16T07:27:56;18.13;;;14.95;;
18574;SDS011;9417;16.484;102.872;2023-05-16T07:30:03;19.27;;;13.98;;
18574;SDS011;9417;16.484;102.872;2023-05-16T07:32:11;19.38;;;14.07;;
18574;SDS011;9417;16.484;102.872;2023-05-16T07:34:17;17.95;;;14.80;;
18574;SDS011;9417;16.484;102.872;2023-05-16T07:36:26;18.02;;;13.95;;
18574;SDS011;9417;16.484;102.872;2023-05-16T07:38:33;17.08;;;14.18;;
18574;SDS011;9417;16.484;102.872;2023-05-16T07:40:40;16.95;;;14.40;;
18574;SDS011;9417;16.484;102.872;2023-05-16T07:42:50;15.75;;;13.98;;
18574;SDS011;9417;16.484;102.872;2023-05-16T07:44:58;16.75;;;14.82;;
18574;SDS011;9417;16.484;102.872;2023-05-16T07:47:05;19.15;;;14.75;;
18574;SDS011;9417;16.484;102.872;2023-05-16T07:49:12;17.27;;;15.15;;
18574;SDS011;9417;16.484;102.872;2023-05-16T07:51:19;17.98;;;15.15;;
18574;SDS011;9417;16.484;102.872;2023-05-16T07:53:28;23.70;;;21.23;;
18574;SDS011;9417;16.484;102.872;2023-05-16T07:55:35;19.88;;;17.98;;
18574;SDS011;9417;16.484;102.872;2023-05-16T07:57:42;20.35;;;18.60;;
18574;SDS011;9417;16.484;102.872;2023-05-16T07:59:49;24.30;;;22.02;;
18574;SDS011;9417;16.484;102.872;2023-05-16T08:01:56;21.42;;;19.35;;
18574;SDS011;9417;16.484;102.872;2023-05-16T08:04:04;21.52;;;19.23;;
18574;SDS011;9417;16.484;102.872;2023-05-16T08:06:11;20.90;;;18.88;;
18574;SDS011;9417;16.484;102.872;2023-05-16T08:08:19;21.48;;;19.40;;
18574;SDS011;9417;16.484;102.872;2023-05-16T08:10:28;17.15;;;14.60;;
18574;SDS011;9417;16.484;102.872;2023-05-16T08:12:35;18.48;;;16.52;;
18574;SDS011;9417;16.484;102.872;2023-05-16T08:14:42;20.10;;;18.23;;
18574;SDS011;9417;16.484;102.872;2023-05-16T08:16:49;20.42;;;18.63;;
18574;SDS011;9417;16.484;102.872;2023-05-16T08:18:56;20.20;;;18.35;;
18574;SDS011;9417;16.484;102.872;2023-05-16T08:21:05;20.95;;;18.75;;
18574;SDS011;9417;16.484;102.872;2023-05-16T08:23:13;22.27;;;18.25;;
18574;SDS011;9417;16.484;102.872;2023-05-16T08:25:20;20.80;;;18.80;;
18574;SDS011;9417;16.484;102.872;2023-05-16T08:27:30;19.83;;;17.73;;
18574;SDS011;9417;16.484;102.872;2023-05-16T08:29:37;18.67;;;16.80;;
18574;SDS011;9417;16.484;102.872;2023-05-16T08:31:44;19.15;;;17.15;;
18574;SDS011;9417;16.484;102.872;2023-05-16T08:33:51;21.98;;;16.90;;
18574;SDS011;9417;16.484;102.872;2023-05-16T08:35:58;19.98;;;17.88;;
18574;SDS011;9417;16.484;102.872;2023-05-16T08:38:05;20.02;;;18.05;;
18574;SDS011;9417;16.484;102.872;2023-05-16T08:40:13;20.52;;;18.02;;
18574;SDS011;9417;16.484;102.872;2023-05-16T08:42:23;21.42;;;18.52;;
18574;SDS011;9417;16.484;102.872;2023-05-16T08:44:32;20.00;;;17.27;;
18574;SDS011;9417;16.484;102.872;2023-05-16T08:46:39;20.83;;;18.73;;
18574;SDS011;9417;16.484;102.872;2023-05-16T08:48:48;18.58;;;16.65;;
18574;SDS011;9417;16.484;102.872;2023-05-16T08:50:58;19.42;;;16.30;;
18574;SDS011;9417;16.484;102.872;2023-05-16T08:53:07;19.15;;;17.25;;
18574;SDS011;9417;16.484;102.872;2023-05-16T08:55:16;19.70;;;17.63;;
18574;SDS011;9417;16.484;102.872;2023-05-16T08:57:25;19.00;;;17.02;;
18574;SDS011;9417;16.484;102.872;2023-05-16T08:59:34;18.38;;;16.73;;
18574;SDS011;9417;16.484;102.872;2023-05-16T09:01:42;19.58;;;17.50;;
18574;SDS011;9417;16.484;102.872;2023-05-16T09:03:49;21.08;;;16.95;;
18574;SDS011;9417;16.484;102.872;2023-05-16T09:05:57;19.52;;;16.70;;
18574;SDS011;9417;16.484;102.872;2023-05-16T09:08:07;18.10;;;15.93;;
18574;SDS011;9417;16.484;102.872;2023-05-16T09:10:14;21.95;;;14.13;;
18574;SDS011;9417;16.484;102.872;2023-05-16T09:12:21;16.88;;;12.70;;
18574;SDS011;9417;16.484;102.872;2023-05-16T09:14:29;16.23;;;13.98;;
18574;SDS011;9417;16.484;102.872;2023-05-16T09:16:38;23.80;;;21.35;;
18574;SDS011;9417;16.484;102.872;2023-05-16T09:18:45;24.02;;;21.80;;
18574;SDS011;9417;16.484;102.872;2023-05-16T09:20:58;24.02;;;21.77;;
18574;SDS011;9417;16.484;102.872;2023-05-16T09:23:05;22.60;;;20.05;;
18574;SDS011;9417;16.484;102.872;2023-05-16T09:25:15;23.38;;;20.63;;
18574;SDS011;9417;16.484;102.872;2023-05-16T09:27:32;23.17;;;21.05;;
18574;SDS011;9417;16.484;102.872;2023-05-16T09:29:39;22.67;;;20.67;;
18574;SDS011;9417;16.484;102.872;2023-05-16T09:31:48;22.67;;;20.42;;
18574;SDS011;9417;16.484;102.872;2023-05-16T09:33:56;24.20;;;21.80;;
18574;SDS011;9417;16.484;102.872;2023-05-16T09:36:03;24.05;;;21.65;;
18574;SDS011;9417;16.484;102.872;2023-05-16T09:38:12;25.20;;;22.63;;
18574;SDS011;9417;16.484;102.872;2023-05-16T09:40:21;23.52;;;21.33;;
18574;SDS011;9417;16.484;102.872;2023-05-16T09:42:28;25.38;;;23.17;;
18574;SDS011;9417;16.484;102.872;2023-05-16T09:44:38;25.80;;;23.27;;
18574;SDS011;9417;16.484;102.872;2023-05-16T09:46:48;36.70;;;31.48;;
18574;SDS011;9417;16.484;102.872;2023-05-16T09:48:58;36.33;;;32.70;;
18574;SDS011;9417;16.484;102.872;2023-05-16T09:51:05;24.65;;;22.25;;
18574;SDS011;9417;16.484;102.872;2023-05-16T09:53:12;26.52;;;23.10;;
18574;SDS011;9417;16.484;102.872;2023-05-16T09:55:20;20.48;;;17.83;;
18574;SDS011;9417;16.484;102.872;2023-05-16T09:57:28;17.33;;;12.95;;
18574;SDS011;9417;16.484;102.872;2023-05-16T09:59:36;19.25;;;13.85;;
18574;SDS011;9417;16.484;102.872;2023-05-16T10:01:43;17.80;;;13.85;;
18574;SDS011;9417;16.484;102.872;2023-05-16T10:03:53;15.20;;;13.48;;
18574;SDS011;9417;16.484;102.872;2023-05-16T10:06:02;16.00;;;12.65;;
18574;SDS011;9417;16.484;102.872;2023-05-16T10:08:10;15.20;;;12.52;;
18574;SDS011;9417;16.484;102.872;2023-05-16T10:10:18;16.40;;;13.32;;
18574;SDS011;9417;16.484;102.872;2023-05-16T10:12:26;17.48;;;13.52;;
18574;SDS011;9417;16.484;102.872;2023-05-16T10:14:36;16.75;;;12.93;;
18574;SDS011;9417;16.484;102.872;2023-05-16T10:16:46;20.93;;;18.77;;
18574;SDS011;9417;16.484;102.872;2023-05-16T10:18:56;26.88;;;24.58;;
18574;SDS011;9417;16.484;102.872;2023-05-16T10:21:05;27.42;;;24.77;;
18574;SDS011;9417;16.484;102.872;2023-05-16T10:23:15;26.02;;;23.73;;
18574;SDS011;9417;16.484;102.872;2023-05-16T10:25:25;25.05;;;23.15;;
18574;SDS011;9417;16.484;102.872;2023-05-16T10:27:36;26.30;;;23.67;;
18574;SDS011;9417;16.484;102.872;2023-05-16T10:29:45;26.95;;;24.52;;
18574;SDS011;9417;16.484;102.872;2023-05-16T10:31:57;31.77;;;28.97;;
18574;SDS011;9417;16.484;102.872;2023-05-16T10:34:06;26.38;;;23.73;;
18574;SDS011;9417;16.484;102.872;2023-05-16T10:36:14;27.17;;;24.77;;
18574;SDS011;9417;16.484;102.872;2023-05-16T10:38:22;31.80;;;28.95;;
18574;SDS011;9417;16.484;102.872;2023-05-16T10:40:31;23.67;;;21.55;;
18574;SDS011;9417;16.484;102.872;2023-05-16T10:42:38;23.30;;;17.33;;
18574;SDS011;9417;16.484;102.872;2023-05-16T10:44:49;22.33;;;17.48;;
18574;SDS011;9417;16.484;102.872;2023-05-16T10:47:07;20.35;;;16.92;;
18574;SDS011;9417;16.484;102.872;2023-05-16T10:49:23;19.30;;;17.27;;
18574;SDS011;9417;16.484;102.872;2023-05-16T10:51:34;25.52;;;16.73;;
18574;SDS011;9417;16.484;102.872;2023-05-16T10:53:42;20.77;;;17.35;;
18574;SDS011;9417;16.484;102.872;2023-05-16T10:55:49;20.55;;;16.73;;
18574;SDS011;9417;16.484;102.872;2023-05-16T10:58:17;23.30;;;16.88;;
18574;SDS011;9417;16.484;102.872;2023-05-16T11:00:28;25.27;;;18.98;;
18574;SDS011;9417;16.484;102.872;2023-05-16T11:02:39;22.00;;;19.13;;
18574;SDS011;9417;16.484;102.872;2023-05-16T11:04:51;22.83;;;20.00;;
18574;SDS011;9417;16.484;102.872;2023-05-16T11:07:00;22.98;;;20.52;;
18574;SDS011;9417;16.484;102.872;2023-05-16T11:09:17;21.60;;;19.40;;
18574;SDS011;9417;16.484;102.872;2023-05-16T11:11:39;25.63;;;20.08;;
18574;SDS011;9417;16.484;102.872;2023-05-16T11:13:53;25.77;;;20.13;;
18574;SDS011;9417;16.484;102.872;2023-05-16T11:18:48;23.33;;;19.75;;
18574;SDS011;9417;16.484;102.872;2023-05-16T11:21:01;22.33;;;18.80;;
18574;SDS011;9417;16.484;102.872;2023-05-16T11:23:18;23.45;;;19.95;;
18574;SDS011;9417;16.484;102.872;2023-05-16T11:25:34;19.90;;;17.20;;
18574;SDS011;9417;16.484;102.872;2023-05-16T11:27:43;20.65;;;17.85;;
18574;SDS011;9417;16.484;102.872;2023-05-16T11:29:51;18.55;;;16.55;;
18574;SDS011;9417;16.484;102.872;2023-05-16T11:32:03;20.83;;;16.95;;
18574;SDS011;9417;16.484;102.872;2023-05-16T11:34:11;23.08;;;17.77;;
18574;SDS011;9417;16.484;102.872;2023-05-16T11:36:20;21.23;;;18.27;;
18574;SDS011;9417;16.484;102.872;2023-05-16T11:38:33;23.27;;;17.33;;
18574;SDS011;9417;16.484;102.872;2023-05-16T11:40:41;20.58;;;17.20;;
18574;SDS011;9417;16.484;102.872;2023-05-16T11:42:48;23.45;;;17.52;;
18574;SDS011;9417;16.484;102.872;2023-05-16T11:45:02;24.30;;;19.05;;
18574;SDS011;9417;16.484;102.872;2023-05-16T11:47:11;28.02;;;19.00;;
18574;SDS011;9417;16.484;102.872;2023-05-16T11:49:18;26.90;;;16.65;;
18574;SDS011;9417;16.484;102.872;2023-05-16T11:51:28;25.10;;;16.77;;
18574;SDS011;9417;16.484;102.872;2023-05-16T11:53:35;27.45;;;16.60;;
18574;SDS011;9417;16.484;102.872;2023-05-16T11:55:43;22.27;;;15.93;;
18574;SDS011;9417;16.484;102.872;2023-05-16T11:57:57;28.30;;;17.83;;
18574;SDS011;9417;16.484;102.872;2023-05-16T12:00:07;20.80;;;15.43;;
18574;SDS011;9417;16.484;102.872;2023-05-16T12:02:20;22.20;;;15.57;;
18574;SDS011;9417;16.484;102.872;2023-05-16T12:04:28;34.90;;;28.55;;
18574;SDS011;9417;16.484;102.872;2023-05-16T12:06:38;21.15;;;16.00;;
18574;SDS011;9417;16.484;102.872;2023-05-16T12:08:49;22.52;;;18.35;;
18574;SDS011;9417;16.484;102.872;2023-05-16T12:10:56;21.30;;;16.45;;
18574;SDS011;9417;16.484;102.872;2023-05-16T12:13:04;20.33;;;16.23;;
18574;SDS011;9417;16.484;102.872;2023-05-16T12:15:11;22.00;;;17.30;;
18574;SDS011;9417;16.484;102.872;2023-05-16T12:17:19;24.50;;;16.08;;
18574;SDS011;9417;16.484;102.872;2023-05-16T12:19:27;22.63;;;16.58;;
18574;SDS011;9417;16.484;102.872;2023-05-16T12:21:34;21.73;;;16.27;;
18574;SDS011;9417;16.484;102.872;2023-05-16T12:23:43;24.67;;;18.38;;